Data for 02/05/2005

Time Sea-Level Adjusted Pressure Absolute Pressure Temperature Relative Humidity Dew Point   
(mb) (inHg) (mb) (inHg) (C) (F) (%) (C) (F)
00:05 1009 29.8 838 24.75 7.3 45.2 30 -9 15.9
00:10 1009 29.8 838 24.75 7.5 45.4 30 -8.9 15.9
00:15 1009 29.8 838 24.75 7.4 45.4 30 -9.1 15.6
00:20 1009 29.8 838 24.75 7.5 45.6 31 -8.5 16.7
00:25 1009 29.8 838 24.75 7.5 45.5 30 -9.1 15.6
00:30 1009 29.8 838 24.75 7.7 45.8 30 -8.9 16
00:35 1009 29.8 838 24.75 7.6 45.7 31 -8.6 16.4
00:40 1009 29.8 838 24.75 7.3 45.2 31 -8.8 16.2
00:45 1009 29.8 838 24.75 7.4 45.4 30 -9 15.8
00:50 1009 29.8 838 24.75 7.2 44.9 33 -8.2 17.3
00:55 1009 29.8 838 24.75 6.6 43.9 34 -8.3 17.1
01:00 1009 29.8 838 24.75 6.3 43.3 33 -8.8 16.1
01:05 1009 29.8 838 24.75 6.6 44 33 -8.5 16.7
01:10 1009 29.8 838 24.75 6.5 43.6 34 -8.4 16.9
01:15 1009 29.8 838 24.75 6.3 43.3 34 -8.3 17
01:20 1009 29.8 838 24.75 6.3 43.3 34 -8.4 16.8
01:25 1009 29.8 838 24.75 6.3 43.3 35 -8.2 17.3
01:30 1008 29.77 838 24.75 6 42.9 35 -8.3 17.1
01:35 1008 29.77 838 24.75 6.2 43.1 34 -8.6 16.5
01:40 1008 29.77 838 24.75 6.3 43.3 35 -8.1 17.5
01:45 1008 29.77 838 24.75 6 42.9 35 -8.1 17.4
01:50 1008 29.77 837 24.72 5.9 42.6 35 -8.3 17.1
01:55 1008 29.77 837 24.72 5.9 42.6 38 -7.4 18.7
02:00 1008 29.77 837 24.72 5.6 42.1 37 -8 17.5
02:05 1008 29.77 837 24.72 5.8 42.5 37 -7.7 18.2
02:10 1008 29.77 837 24.72 5.4 41.8 39 -7.3 18.8
02:15 1008 29.77 837 24.72 5 41.1 40 -7.4 18.6
02:20 1008 29.77 837 24.72 4.8 40.6 41 -7.2 19
02:25 1008 29.77 838 24.75 4.8 40.6 40 -7.7 18.1
02:30 1008 29.77 838 24.75 5 41 40 -7.4 18.7
02:35 1009 29.8 838 24.75 4.8 40.7 41 -7.2 19
02:40 1009 29.8 838 24.75 4.6 40.2 43 -6.8 19.7
02:45 1009 29.8 838 24.75 4.3 39.7 45 -6.5 20.2
02:50 1009 29.8 838 24.75 3.9 39.1 48 -6.2 20.8
02:55 1009 29.8 838 24.75 3.7 38.7 50 -5.8 21.5
03:00 1009 29.8 838 24.75 3.6 38.5 49 -6.1 21
03:05 1009 29.8 838 24.75 3.7 38.7 48 -6.3 20.7
03:10 1009 29.8 838 24.75 3.9 39 48 -6.2 20.8
03:15 1009 29.8 838 24.75 4.1 39.3 46 -6.6 20.2
03:20 1009 29.8 838 24.75 4.4 39.9 45 -6.6 20.1
03:25 1009 29.8 838 24.75 4.3 39.8 48 -5.6 21.9
03:30 1009 29.8 838 24.75 3.9 39 52 -5.2 22.7
03:35 1009 29.8 838 24.75 3.4 38.2 54 -5 23
03:40 1009 29.8 838 24.75 3.1 37.7 56 -4.9 23.2
03:45 1009 29.8 838 24.75 2.9 37.3 57 -4.8 23.4
03:50 1009 29.8 838 24.75 2.6 36.7 60 -4.4 24.1
03:55 1009 29.8 839 24.78 2.4 36.4 63 -4 24.8
04:00 1010 29.83 839 24.78 2.1 35.8 65 -3.7 25.3
04:05 1010 29.83 839 24.78 2.1 35.7 66 -3.6 25.6
04:10 1010 29.83 839 24.78 1.9 35.5 67 -3.5 25.7
04:15 1010 29.83 839 24.78 1.7 35.1 68 -3.6 25.5
04:20 1010 29.83 839 24.78 1.5 34.8 68 -3.8 25.2
04:25 1010 29.83 839 24.78 1.3 34.4 69 -3.6 25.4
04:30 1010 29.83 839 24.78 1.2 34.2 70 -3.6 25.5
04:35 1010 29.83 839 24.78 1.2 34.1 71 -3.6 25.5
04:40 1010 29.83 839 24.78 1.1 33.9 71 -3.6 25.6
04:45 1010 29.83 840 24.81 0.9 33.7 72 -3.5 25.7
04:50 1010 29.83 840 24.81 0.6 33.1 75 -3.3 26
04:55 1011 29.85 840 24.81 0.3 32.5 80 -2.7 27.1
05:00 1011 29.85 840 24.81 -0.4 31.3 88 -2.2 28.1
05:05 1011 29.85 840 24.81 -0.8 30.6 91 -2 28.4
05:10 1011 29.85 840 24.81 -1 30.2 93 -1.9 28.5
05:15 1011 29.85 840 24.81 -1 30.2 94 -1.8 28.7
05:20 1011 29.85 840 24.81 -1.1 30 96 -1.7 28.9
05:25 1011 29.85 840 24.81 -1.1 30 96 -1.7 29
05:30 1011 29.85 840 24.81 -1.2 29.9 97 -1.7 29
05:35 1011 29.85 840 24.81 -1.3 29.6 97 -1.8 28.8
05:40 1011 29.85 840 24.81 -1.3 29.6 97 -1.7 28.9
05:45 1011 29.85 840 24.81 -1.3 29.6 98 -1.7 29
05:50 1011 29.85 840 24.81 -1.4 29.5 98 -1.7 28.9
05:55 1011 29.85 840 24.81 -1.4 29.5 98 -1.7 28.9
06:00 1011 29.85 840 24.81 -1.4 29.5 98 -1.7 28.9
06:05 1011 29.85 840 24.81 -1.4 29.5 97 -1.8 28.8
06:10 1011 29.85 840 24.81 -1.4 29.5 98 -1.7 28.9
06:15 1011 29.85 840 24.81 -1.4 29.4 97 -1.9 28.6
06:20 1011 29.85 840 24.81 -1.6 29.2 97 -2 28.5
06:25 1011 29.85 840 24.81 -1.7 29 98 -2 28.4
06:30 1011 29.85 840 24.81 -1.7 28.9 98 -2 28.3
06:35 1011 29.85 840 24.81 -1.8 28.8 98 -2.1 28.3
06:40 1011 29.85 840 24.81 -1.8 28.7 98 -2.2 28.1
06:45 1011 29.85 840 24.81 -1.8 28.8 98 -2.1 28.2
06:50 1011 29.85 840 24.81 -1.8 28.8 98 -2.1 28.3
06:55 1011 29.85 840 24.81 -1.7 28.9 98 -2 28.4
07:00 1011 29.85 840 24.81 -1.7 29 98 -2 28.5
07:05 1011 29.85 840 24.81 -1.6 29.1 98 -1.9 28.6
07:10 1011 29.85 840 24.81 -1.6 29.1 98 -1.9 28.6
07:15 1011 29.85 840 24.81 -1.5 29.2 97 -1.9 28.5
07:20 1011 29.85 840 24.81 -1.5 29.4 97 -1.9 28.5
07:25 1011 29.85 840 24.81 -1.4 29.4 95 -2.1 28.2
07:30 1011 29.85 840 24.81 -1.5 29.2 95 -2.2 28
07:35 1011 29.85 840 24.81 -1.7 28.9 96 -2.3 27.9
07:40 1011 29.85 840 24.81 -1.7 28.9 96 -2.3 27.9
07:45 1011 29.85 840 24.81 -1.8 28.7 96 -2.3 27.8
07:50 1011 29.85 840 24.81 -1.8 28.8 96 -2.4 27.7
07:55 1011 29.85 840 24.81 -1.9 28.6 96 -2.4 27.7
08:00 1011 29.85 840 24.81 -1.9 28.6 96 -2.5 27.5
08:05 1011 29.85 840 24.81 -1.9 28.6 96 -2.5 27.5
08:10 1011 29.85 840 24.81 -1.9 28.6 96 -2.5 27.5
08:15 1011 29.85 840 24.81 -1.8 28.8 96 -2.3 27.8
08:20 1011 29.85 841 24.83 -1.6 29.1 95 -2.4 27.7
08:25 1011 29.85 841 24.83 -1.5 29.3 94 -2.4 27.7
08:30 1011 29.85 841 24.83 -1.4 29.5 93 -2.4 27.6
08:35 1011 29.85 841 24.83 -1.4 29.5 93 -2.4 27.7
08:40 1011 29.85 841 24.83 -1.4 29.5 92 -2.5 27.6
08:45 1011 29.85 841 24.83 -1.5 29.3 92 -2.6 27.3
08:50 1011 29.85 841 24.83 -1.5 29.4 91 -2.8 27
08:55 1011 29.85 841 24.83 -1.3 29.7 90 -2.7 27.2
09:00 1011 29.85 841 24.83 -1.1 29.9 90 -2.6 27.3
09:05 1011 29.85 841 24.83 -0.9 30.5 87 -2.7 27.1
09:10 1011 29.85 841 24.83 -0.7 30.8 86 -2.7 27.2
09:15 1011 29.85 841 24.83 -0.4 31.2 82 -3.2 26.3
09:20 1012 29.88 841 24.83 -0.3 31.5 82 -3 26.5
09:25 1012 29.88 841 24.83 -0.2 31.6 82 -2.9 26.8
09:30 1012 29.88 841 24.83 -0.2 31.6 80 -3.2 26.2
09:35 1012 29.88 841 24.83 -0.2 31.7 74 -4.3 24.2
09:40 1012 29.88 841 24.83 -0.1 31.9 75 -3.9 25
09:45 1012 29.88 841 24.83 -0.2 31.6 75 -4.2 24.5
09:50 1012 29.88 841 24.83 -0.4 31.4 72 -4.8 23.4
09:55 1012 29.88 841 24.83 -0.4 31.3 71 -5.1 22.9
10:00 1012 29.88 841 24.83 -0.4 31.3 71 -5 23
10:05 1012 29.88 841 24.83 -0.5 31.2 70 -5.3 22.5
10:10 1012 29.88 841 24.83 -0.5 31.1 69 -5.4 22.3
10:15 1012 29.88 841 24.83 -0.5 31.1 69 -5.5 22.1
10:20 1012 29.88 841 24.83 -0.5 31.1 65 -6.3 20.7
10:25 1012 29.88 841 24.83 -0.5 31.1 64 -6.5 20.3
10:30 1012 29.88 841 24.83 -0.5 31.1 62 -6.9 19.6
10:35 1012 29.88 841 24.83 -0.4 31.2 59 -7.5 18.5
10:40 1012 29.88 841 24.83 -0.3 31.4 59 -7.5 18.5
10:45 1012 29.88 841 24.83 -0.2 31.6 56 -7.9 17.7
10:50 1012 29.88 841 24.83 -0 32 55 -8 17.5
10:55 1012 29.88 841 24.83 0.5 32.8 48 -9.2 15.4
11:00 1012 29.88 841 24.83 0.3 32.5 47 -9.7 14.5
11:05 1012 29.88 841 24.83 0.3 32.6 46 -9.9 14.2
11:10 1012 29.88 841 24.83 0.3 32.6 48 -9.4 15.1
11:15 1012 29.88 841 24.83 0.3 32.5 48 -9.6 14.7
11:20 1012 29.88 841 24.83 0.4 32.7 48 -9.5 14.9
11:25 1012 29.88 841 24.83 0.4 32.7 47 -9.6 14.7
11:30 1012 29.88 841 24.83 0.8 33.4 46 -9.5 14.9
11:35 1012 29.88 841 24.83 1.1 34.1 45 -9.6 14.7
11:40 1012 29.88 841 24.83 2.1 35.9 40 -10.2 13.6
11:45 1012 29.88 841 24.83 2.3 36.2 37 -11 12.1
11:50 1012 29.88 841 24.83 2.2 35.9 38 -10.9 12.4
11:55 1012 29.88 841 24.83 2.1 35.9 37 -10.9 12.3
12:00 1012 29.88 841 24.83 2.2 36 38 -10.6 12.9
12:05 1012 29.88 841 24.83 2.3 36.2 39 -10.2 13.7
12:10 1012 29.88 841 24.83 2.7 36.9 33 -12 10.4
12:15 1012 29.88 841 24.83 2.4 36.4 34 -11.8 10.7
12:20 1012 29.88 841 24.83 2.4 36.3 35 -11.7 10.9
12:25 1012 29.88 841 24.83 2.9 37.2 33 -11.9 10.7
12:30 1012 29.88 841 24.83 2.7 36.9 34 -11.6 11
12:35 1012 29.88 841 24.83 3 37.3 33 -11.9 10.6
12:40 1012 29.88 841 24.83 3.2 37.8 32 -11.9 10.6
12:45 1012 29.88 841 24.83 3.2 37.8 34 -11.2 11.8
12:50 1011 29.85 841 24.83 2.4 36.4 33 -12.3 9.8
12:55 1011 29.85 841 24.83 1.8 35.2 35 -12.2 10.1
13:00 1011 29.85 841 24.83 2.2 36 33 -12.4 9.6
13:05 1011 29.85 840 24.81 2.6 36.8 32 -12.4 9.6
13:10 1011 29.85 840 24.81 2.5 36.6 32 -12.6 9.3
13:15 1011 29.85 840 24.81 2.9 37.1 30 -13.2 8.2
13:20 1011 29.85 840 24.81 2.9 37.1 30 -13.1 8.3
13:25 1011 29.85 840 24.81 3.4 38.1 29 -13.1 8.4
13:30 1011 29.85 840 24.81 3.1 37.6 30 -12.7 9.2
13:35 1011 29.85 840 24.81 2.5 36.5 32 -12.5 9.6
13:40 1011 29.85 840 24.81 2.1 35.9 32 -12.9 8.8
13:45 1011 29.85 840 24.81 1.7 35 31 -13.7 7.4
13:50 1011 29.85 840 24.81 2 35.6 31 -13.6 7.5
13:55 1011 29.85 840 24.81 2.4 36.4 31 -13 8.6
14:00 1011 29.85 840 24.81 2.2 36 32 -12.9 8.8
14:05 1011 29.85 840 24.81 2 35.6 33 -12.7 9.1
14:10 1011 29.85 840 24.81 1.2 34.2 34 -13 8.6
14:15 1011 29.85 840 24.81 0.8 33.5 32 -14.2 6.5
14:20 1011 29.85 840 24.81 0.7 33.3 32 -14.3 6.2
14:25 1011 29.85 840 24.81 0.6 33.1 32 -14.2 6.4
14:30 1011 29.85 840 24.81 0.9 33.6 32 -14.2 6.4
14:35 1011 29.85 840 24.81 1.3 34.3 30 -14.3 6.2
14:40 1011 29.85 840 24.81 1.2 34.2 34 -13.1 8.3
14:45 1011 29.85 840 24.81 1.4 34.5 34 -12.9 8.8
14:50 1011 29.85 840 24.81 1.4 34.5 37 -11.8 10.7
14:55 1011 29.85 840 24.81 0.7 33.3 41 -11.1 12
15:00 1011 29.85 841 24.83 0.2 32.4 40 -11.8 10.7
15:05 1011 29.85 841 24.83 0.5 32.9 39 -12 10.4
15:10 1012 29.88 841 24.83 0.6 33 38 -12.2 10
15:15 1011 29.85 841 24.83 0.7 33.3 34 -13.3 8.1
15:20 1011 29.85 841 24.83 1 33.9 37 -12.2 10.1
15:25 1011 29.85 841 24.83 1.1 34 35 -12.6 9.4
15:30 1011 29.85 841 24.83 1.5 34.7 36 -12 10.3
15:35 1011 29.85 841 24.83 1.3 34.3 35 -12.4 9.6
15:40 1011 29.85 841 24.83 0.4 32.8 39 -11.9 10.5
15:45 1012 29.88 841 24.83 -0.5 31.1 39 -12.8 9
15:50 1012 29.88 841 24.83 -0.7 30.8 41 -12.5 9.5
15:55 1012 29.88 841 24.83 -0.9 30.3 40 -12.9 8.8
16:00 1012 29.88 841 24.83 -0.9 30.3 40 -13 8.6
16:05 1012 29.88 841 24.83 -1.1 30 43 -12.3 9.9
16:10 1012 29.88 841 24.83 -1.2 29.8 43 -12.4 9.7
16:15 1012 29.88 841 24.83 -1.1 30 44 -11.9 10.6
16:20 1012 29.88 841 24.83 -1.1 30.1 45 -11.6 11.1
16:25 1012 29.88 841 24.83 -1 30.2 46 -11.1 12
16:30 1012 29.88 841 24.83 -1.2 29.9 49 -10.7 12.8
16:35 1012 29.88 841 24.83 -1.5 29.4 53 -9.9 14.3
16:40 1012 29.88 841 24.83 -1.9 28.6 55 -9.7 14.6
16:45 1012 29.88 841 24.83 -2 28.4 58 -9.1 15.6
16:50 1012 29.88 841 24.83 -2.2 28.1 59 -9.1 15.6
16:55 1012 29.88 841 24.83 -2.1 28.3 57 -9.6 14.8
17:00 1012 29.88 841 24.83 -1.8 28.7 51 -10.8 12.6
17:05 1012 29.88 841 24.83 -1.8 28.8 53 -10.1 13.8
17:10 1012 29.88 841 24.83 -1.9 28.6 55 -9.7 14.5
17:15 1012 29.88 841 24.83 -2.1 28.2 55 -9.9 14.2
17:20 1012 29.88 841 24.83 -2 28.4 55 -9.8 14.4
17:25 1012 29.88 841 24.83 -2.3 27.8 56 -10 14
17:30 1012 29.88 841 24.83 -2.6 27.3 55 -10.5 13.1
17:35 1012 29.88 841 24.83 -2.7 27.1 55 -10.6 12.9
17:40 1012 29.88 841 24.83 -2.7 27.1 53 -11 12.2
17:45 1012 29.88 841 24.83 -1.9 28.5 47 -11.9 10.5
17:50 1012 29.88 842 24.86 -1.4 29.5 44 -12.2 10
17:55 1012 29.88 842 24.86 -1.3 29.7 45 -11.7 10.9
18:00 1012 29.88 842 24.86 -1.5 29.3 46 -11.6 11.1
18:05 1013 29.91 842 24.86 -1.7 29 48 -11.3 11.7
18:10 1013 29.91 842 24.86 -1.8 28.8 49 -11.2 11.9
18:15 1013 29.91 842 24.86 -1.6 29.1 47 -11.4 11.4
18:20 1013 29.91 842 24.86 -1.5 29.3 41 -13.1 8.3
18:25 1013 29.91 842 24.86 -1.2 29.9 39 -13.5 7.8
18:30 1013 29.91 842 24.86 -1.1 30.1 39 -13.3 8.1
18:35 1013 29.91 842 24.86 -1.1 30.1 40 -13.2 8.3
18:40 1013 29.91 842 24.86 -1 30.1 41 -12.6 9.4
18:45 1013 29.91 842 24.86 -1 30.1 40 -13 8.5
18:50 1013 29.91 842 24.86 -1.2 29.9 40 -13 8.6
18:55 1013 29.91 842 24.86 -1.3 29.7 42 -12.5 9.5
19:00 1013 29.91 842 24.86 -1.3 29.6 45 -11.8 10.8
19:05 1013 29.91 842 24.86 -1.5 29.4 46 -11.6 11.1
19:10 1013 29.91 842 24.86 -1.7 28.9 45 -12.1 10.3
19:15 1013 29.91 842 24.86 -1.7 28.9 45 -12.2 10
19:20 1013 29.91 842 24.86 -1.6 29.1 45 -11.9 10.5
19:25 1013 29.91 842 24.86 -1.6 29.1 44 -12.4 9.7
19:30 1013 29.91 843 24.89 -2 28.5 44 -12.5 9.4
19:35 1013 29.91 843 24.89 -1.7 28.9 42 -12.9 8.7
19:40 1013 29.91 843 24.89 -1.6 29.1 43 -12.8 9
19:45 1013 29.91 843 24.89 -1.9 28.6 43 -13 8.6
19:50 1013 29.91 843 24.89 -2 28.4 43 -12.9 8.8
19:55 1013 29.91 843 24.89 -2.2 28 46 -12.4 9.7
20:00 1013 29.91 843 24.89 -2.4 27.7 45 -12.7 9.2
20:05 1013 29.91 843 24.89 -2.9 26.7 46 -13 8.5
20:10 1014 29.94 843 24.89 -3.3 26.1 46 -13.3 8
20:15 1014 29.94 843 24.89 -3.5 25.8 48 -13 8.6
20:20 1014 29.94 843 24.89 -3.7 25.3 48 -13.2 8.2
20:25 1014 29.94 843 24.89 -4 24.9 48 -13.5 7.8
20:30 1014 29.94 843 24.89 -4.2 24.5 48 -13.6 7.6
20:35 1014 29.94 843 24.89 -4.2 24.4 47 -13.9 7
20:40 1014 29.94 843 24.89 -4.1 24.6 47 -13.9 7.1
20:45 1014 29.94 843 24.89 -4.1 24.7 50 -13 8.6
20:50 1014 29.94 843 24.89 -4.4 24.1 57 -11.6 11.2
20:55 1014 29.94 843 24.89 -4.4 24.1 61 -10.9 12.4
21:00 1014 29.94 843 24.89 -4.3 24.3 61 -10.7 12.7
21:05 1014 29.94 843 24.89 -4 24.8 60 -10.6 12.9
21:10 1014 29.94 843 24.89 -3.7 25.3 59 -10.6 12.9
21:15 1014 29.94 843 24.89 -3.8 25.2 58 -10.9 12.3
21:20 1014 29.94 843 24.89 -3.8 25.2 58 -10.9 12.4
21:25 1014 29.94 843 24.89 -4.1 24.6 60 -10.8 12.5
21:30 1014 29.94 843 24.89 -4.4 24 62 -10.6 12.8
21:35 1014 29.94 843 24.89 -4.7 23.5 64 -10.5 13
21:40 1014 29.94 843 24.89 -5.1 22.8 65 -10.7 12.7
21:45 1014 29.94 843 24.89 -5.4 22.2 66 -10.9 12.5
21:50 1014 29.94 843 24.89 -5.5 22.1 65 -11.1 11.9
21:55 1014 29.94 843 24.89 -5.3 22.5 62 -11.5 11.3
22:00 1014 29.94 843 24.89 -4.9 23.1 58 -12 10.5
22:05 1014 29.94 843 24.89 -4.8 23.4 54 -12.7 9.1
22:10 1014 29.94 843 24.89 -4.6 23.7 53 -12.8 8.9
22:15 1014 29.94 843 24.89 -4.5 24 53 -12.7 9.2
22:20 1014 29.94 843 24.89 -4.7 23.6 56 -12.1 10.2
22:25 1014 29.94 843 24.89 -5 23 58 -12.1 10.2
22:30 1014 29.94 843 24.89 -4.5 23.8 52 -13 8.6
22:35 1014 29.94 843 24.89 -4.4 24.1 54 -12.3 9.9
22:40 1014 29.94 843 24.89 -4.8 23.3 53 -13 8.6
22:45 1014 29.94 843 24.89 -4.9 23.1 54 -12.9 8.7
22:50 1014 29.94 843 24.89 -4.5 24 54 -12.4 9.6
22:55 1014 29.94 843 24.89 -4.3 24.3 51 -13 8.6
23:00 1014 29.94 843 24.89 -4.4 24.1 54 -12.3 9.8
23:05 1014 29.94 843 24.89 -4.7 23.5 58 -11.9 10.6
23:10 1014 29.94 843 24.89 -5.1 22.9 59 -12 10.5
23:15 1014 29.94 843 24.89 -5.1 22.9 53 -13.1 8.3
23:20 1014 29.94 843 24.89 -5 23 55 -12.8 9
23:25 1014 29.94 843 24.89 -5.4 22.4 55 -12.9 8.7
23:30 1014 29.94 843 24.89 -5.6 21.8 59 -12.4 9.6
23:35 1014 29.94 843 24.89 -6.4 20.4 65 -12 10.4
23:40 1014 29.94 843 24.89 -7.1 19.2 66 -12.5 9.5
23:45 1014 29.94 843 24.89 -6.9 19.6 64 -12.5 9.4
23:50 1014 29.94 843 24.89 -6.6 20.1 63 -12.5 9.4
23:55 1014 29.94 843 24.89 -6.7 20 64 -12.5 9.5
24:00 1014 29.94 843 24.89 -7.1 19.2 66 -12.5 9.5